sensor_id;sensor_type;location;lat;lon;timestamp;P1;durP1;ratioP1;P2;durP2;ratioP2
57615;SDS011;43816;52.054;-9.494;2022-09-24T00:00:06;3.80;;;2.77;;
57615;SDS011;43816;52.054;-9.494;2022-09-24T00:00:17;3.42;;;2.67;;
57615;SDS011;43816;52.054;-9.494;2022-09-24T00:00:27;2.97;;;2.57;;
57615;SDS011;43816;52.054;-9.494;2022-09-24T00:00:39;3.15;;;2.47;;
57615;SDS011;43816;52.054;-9.494;2022-09-24T00:00:56;3.53;;;2.60;;
57615;SDS011;43816;52.054;-9.494;2022-09-24T00:01:10;3.10;;;2.47;;
57615;SDS011;43816;52.054;-9.494;2022-09-24T00:01:21;3.00;;;2.40;;
57615;SDS011;43816;52.054;-9.494;2022-09-24T00:01:36;3.05;;;2.63;;
57615;SDS011;43816;52.054;-9.494;2022-09-24T00:01:47;3.55;;;2.90;;
57615;SDS011;43816;52.054;-9.494;2022-09-24T00:01:57;4.47;;;2.80;;
57615;SDS011;43816;52.054;-9.494;2022-09-24T00:02:07;4.60;;;2.63;;
57615;SDS011;43816;52.054;-9.494;2022-09-24T00:02:18;3.77;;;2.53;;
57615;SDS011;43816;52.054;-9.494;2022-09-24T00:02:28;3.13;;;2.47;;
57615;SDS011;43816;52.054;-9.494;2022-09-24T00:02:38;2.60;;;2.30;;
57615;SDS011;43816;52.054;-9.494;2022-09-24T00:02:48;3.20;;;2.20;;
57615;SDS011;43816;52.054;-9.494;2022-09-24T00:02:59;3.47;;;2.20;;
57615;SDS011;43816;52.054;-9.494;2022-09-24T00:03:09;3.90;;;2.40;;
57615;SDS011;43816;52.054;-9.494;2022-09-24T00:03:21;3.42;;;2.38;;
57615;SDS011;43816;52.054;-9.494;2022-09-24T00:03:33;3.35;;;2.50;;
57615;SDS011;43816;52.054;-9.494;2022-09-24T00:03:44;3.63;;;2.60;;
57615;SDS011;43816;52.054;-9.494;2022-09-24T00:04:00;4.10;;;2.53;;
57615;SDS011;43816;52.054;-9.494;2022-09-24T00:04:13;3.40;;;2.45;;
57615;SDS011;43816;52.054;-9.494;2022-09-24T00:04:24;3.20;;;2.40;;
57615;SDS011;43816;52.054;-9.494;2022-09-24T00:04:35;3.03;;;2.30;;
57615;SDS011;43816;52.054;-9.494;2022-09-24T00:04:45;3.40;;;2.40;;
57615;SDS011;43816;52.054;-9.494;2022-09-24T00:04:56;3.38;;;2.65;;
57615;SDS011;43816;52.054;-9.494;2022-09-24T00:05:06;3.47;;;2.60;;
57615;SDS011;43816;52.054;-9.494;2022-09-24T00:05:17;3.05;;;2.42;;
57615;SDS011;43816;52.054;-9.494;2022-09-24T00:05:27;3.27;;;2.30;;
57615;SDS011;43816;52.054;-9.494;2022-09-24T00:05:38;3.40;;;2.40;;
57615;SDS011;43816;52.054;-9.494;2022-09-24T00:05:49;3.42;;;2.60;;
57615;SDS011;43816;52.054;-9.494;2022-09-24T00:06:01;3.05;;;2.50;;
57615;SDS011;43816;52.054;-9.494;2022-09-24T00:06:12;2.97;;;2.50;;
57615;SDS011;43816;52.054;-9.494;2022-09-24T00:06:22;2.92;;;2.33;;
57615;SDS011;43816;52.054;-9.494;2022-09-24T00:06:34;2.77;;;2.30;;
57615;SDS011;43816;52.054;-9.494;2022-09-24T00:06:48;2.70;;;2.35;;
57615;SDS011;43816;52.054;-9.494;2022-09-24T00:06:59;2.77;;;2.40;;
57615;SDS011;43816;52.054;-9.494;2022-09-24T00:07:09;3.03;;;2.50;;
57615;SDS011;43816;52.054;-9.494;2022-09-24T00:07:19;3.17;;;2.53;;
57615;SDS011;43816;52.054;-9.494;2022-09-24T00:07:29;3.15;;;2.45;;
57615;SDS011;43816;52.054;-9.494;2022-09-24T00:07:40;3.53;;;2.40;;
57615;SDS011;43816;52.054;-9.494;2022-09-24T00:07:50;3.73;;;2.50;;
57615;SDS011;43816;52.054;-9.494;2022-09-24T00:08:00;3.60;;;2.40;;
57615;SDS011;43816;52.054;-9.494;2022-09-24T00:08:11;3.47;;;2.47;;
57615;SDS011;43816;52.054;-9.494;2022-09-24T00:08:22;3.35;;;2.40;;
57615;SDS011;43816;52.054;-9.494;2022-09-24T00:08:33;3.20;;;2.40;;
57615;SDS011;43816;52.054;-9.494;2022-09-24T00:08:44;3.08;;;2.30;;
57615;SDS011;43816;52.054;-9.494;2022-09-24T00:08:59;2.92;;;2.30;;
57615;SDS011;43816;52.054;-9.494;2022-09-24T00:09:10;2.72;;;2.35;;
57615;SDS011;43816;52.054;-9.494;2022-09-24T00:09:22;2.50;;;2.30;;
57615;SDS011;43816;52.054;-9.494;2022-09-24T00:09:32;2.42;;;2.20;;
57615;SDS011;43816;52.054;-9.494;2022-09-24T00:09:42;2.60;;;2.37;;
57615;SDS011;43816;52.054;-9.494;2022-09-24T00:09:53;2.93;;;2.30;;
57615;SDS011;43816;52.054;-9.494;2022-09-24T00:10:03;3.00;;;2.33;;
57615;SDS011;43816;52.054;-9.494;2022-09-24T00:10:14;2.63;;;2.10;;
57615;SDS011;43816;52.054;-9.494;2022-09-24T00:10:24;2.58;;;2.25;;
57615;SDS011;43816;52.054;-9.494;2022-09-24T00:10:35;2.63;;;2.33;;
57615;SDS011;43816;52.054;-9.494;2022-09-24T00:10:47;3.22;;;2.40;;
57615;SDS011;43816;52.054;-9.494;2022-09-24T00:10:59;3.28;;;2.42;;
57615;SDS011;43816;52.054;-9.494;2022-09-24T00:11:15;3.47;;;2.58;;
57615;SDS011;43816;52.054;-9.494;2022-09-24T00:11:26;3.50;;;2.75;;
57615;SDS011;43816;52.054;-9.494;2022-09-24T00:11:37;3.42;;;2.58;;
57615;SDS011;43816;52.054;-9.494;2022-09-24T00:11:49;4.15;;;2.78;;
57615;SDS011;43816;52.054;-9.494;2022-09-24T00:11:59;4.15;;;2.58;;
57615;SDS011;43816;52.054;-9.494;2022-09-24T00:12:10;5.00;;;2.67;;
57615;SDS011;43816;52.054;-9.494;2022-09-24T00:12:20;4.07;;;2.37;;
57615;SDS011;43816;52.054;-9.494;2022-09-24T00:12:30;3.28;;;2.20;;
57615;SDS011;43816;52.054;-9.494;2022-09-24T00:12:41;2.67;;;2.20;;
57615;SDS011;43816;52.054;-9.494;2022-09-24T00:12:51;2.85;;;2.30;;
57615;SDS011;43816;52.054;-9.494;2022-09-24T00:13:02;2.80;;;2.30;;
57615;SDS011;43816;52.054;-9.494;2022-09-24T00:13:13;2.70;;;2.20;;
57615;SDS011;43816;52.054;-9.494;2022-09-24T00:13:25;2.75;;;2.20;;
57615;SDS011;43816;52.054;-9.494;2022-09-24T00:13:35;2.92;;;2.30;;
57615;SDS011;43816;52.054;-9.494;2022-09-24T00:13:46;3.47;;;2.33;;
57615;SDS011;43816;52.054;-9.494;2022-09-24T00:13:58;3.85;;;2.40;;
57615;SDS011;43816;52.054;-9.494;2022-09-24T00:14:09;4.03;;;2.47;;
57615;SDS011;43816;52.054;-9.494;2022-09-24T00:14:19;3.53;;;2.30;;
57615;SDS011;43816;52.054;-9.494;2022-09-24T00:14:29;3.30;;;2.17;;
57615;SDS011;43816;52.054;-9.494;2022-09-24T00:14:40;3.00;;;2.30;;
57615;SDS011;43816;52.054;-9.494;2022-09-24T00:14:50;2.72;;;2.20;;
57615;SDS011;43816;52.054;-9.494;2022-09-24T00:15:00;2.67;;;2.30;;
57615;SDS011;43816;52.054;-9.494;2022-09-24T00:15:11;2.80;;;2.20;;
57615;SDS011;43816;52.054;-9.494;2022-09-24T00:15:21;3.10;;;2.40;;
57615;SDS011;43816;52.054;-9.494;2022-09-24T00:15:35;2.90;;;2.17;;
57615;SDS011;43816;52.054;-9.494;2022-09-24T00:15:47;3.13;;;2.25;;
57615;SDS011;43816;52.054;-9.494;2022-09-24T00:16:03;3.17;;;2.28;;
57615;SDS011;43816;52.054;-9.494;2022-09-24T00:16:17;3.35;;;2.22;;
57615;SDS011;43816;52.054;-9.494;2022-09-24T00:16:29;3.35;;;2.17;;
57615;SDS011;43816;52.054;-9.494;2022-09-24T00:16:40;2.75;;;2.05;;
57615;SDS011;43816;52.054;-9.494;2022-09-24T00:16:50;2.58;;;2.10;;
57615;SDS011;43816;52.054;-9.494;2022-09-24T00:17:00;2.63;;;2.23;;
57615;SDS011;43816;52.054;-9.494;2022-09-24T00:17:11;2.80;;;2.50;;
57615;SDS011;43816;52.054;-9.494;2022-09-24T00:17:21;3.30;;;2.60;;
57615;SDS011;43816;52.054;-9.494;2022-09-24T00:17:31;2.93;;;2.37;;
57615;SDS011;43816;52.054;-9.494;2022-09-24T00:17:41;3.00;;;2.27;;
57615;SDS011;43816;52.054;-9.494;2022-09-24T00:17:52;2.53;;;2.10;;
57615;SDS011;43816;52.054;-9.494;2022-09-24T00:18:02;2.57;;;1.97;;
57615;SDS011;43816;52.054;-9.494;2022-09-24T00:18:14;2.70;;;1.90;;
57615;SDS011;43816;52.054;-9.494;2022-09-24T00:18:27;2.72;;;1.98;;
57615;SDS011;43816;52.054;-9.494;2022-09-24T00:18:37;2.40;;;2.00;;
57615;SDS011;43816;52.054;-9.494;2022-09-24T00:18:48;2.17;;;1.90;;
57615;SDS011;43816;52.054;-9.494;2022-09-24T00:18:59;2.60;;;2.05;;
57615;SDS011;43816;52.054;-9.494;2022-09-24T00:19:12;2.70;;;2.15;;
57615;SDS011;43816;52.054;-9.494;2022-09-24T00:19:23;2.97;;;2.15;;
57615;SDS011;43816;52.054;-9.494;2022-09-24T00:19:33;2.90;;;2.20;;
57615;SDS011;43816;52.054;-9.494;2022-09-24T00:19:43;3.33;;;2.27;;
57615;SDS011;43816;52.054;-9.494;2022-09-24T00:19:53;3.10;;;2.20;;
57615;SDS011;43816;52.054;-9.494;2022-09-24T00:20:04;3.03;;;2.10;;
57615;SDS011;43816;52.054;-9.494;2022-09-24T00:20:14;2.72;;;2.03;;
57615;SDS011;43816;52.054;-9.494;2022-09-24T00:20:30;3.10;;;2.20;;
57615;SDS011;43816;52.054;-9.494;2022-09-24T00:20:41;3.18;;;2.20;;
57615;SDS011;43816;52.054;-9.494;2022-09-24T00:20:52;2.60;;;2.23;;
57615;SDS011;43816;52.054;-9.494;2022-09-24T00:21:15;2.53;;;2.07;;
57615;SDS011;43816;52.054;-9.494;2022-09-24T00:21:32;2.30;;;2.10;;
57615;SDS011;43816;52.054;-9.494;2022-09-24T00:21:44;2.50;;;2.20;;
57615;SDS011;43816;52.054;-9.494;2022-09-24T00:21:54;2.47;;;2.10;;
57615;SDS011;43816;52.054;-9.494;2022-09-24T00:22:04;2.83;;;2.20;;
57615;SDS011;43816;52.054;-9.494;2022-09-24T00:22:14;2.63;;;2.17;;
57615;SDS011;43816;52.054;-9.494;2022-09-24T00:22:25;2.93;;;2.20;;
57615;SDS011;43816;52.054;-9.494;2022-09-24T00:22:35;2.53;;;2.10;;
57615;SDS011;43816;52.054;-9.494;2022-09-24T00:22:45;2.60;;;2.10;;
57615;SDS011;43816;52.054;-9.494;2022-09-24T00:22:55;2.63;;;2.07;;
57615;SDS011;43816;52.054;-9.494;2022-09-24T00:23:06;3.13;;;2.10;;
57615;SDS011;43816;52.054;-9.494;2022-09-24T00:23:17;3.13;;;2.13;;
57615;SDS011;43816;52.054;-9.494;2022-09-24T00:23:28;2.95;;;2.25;;
57615;SDS011;43816;52.054;-9.494;2022-09-24T00:23:38;2.77;;;2.37;;
57615;SDS011;43816;52.054;-9.494;2022-09-24T00:23:53;2.72;;;2.20;;
57615;SDS011;43816;52.054;-9.494;2022-09-24T00:24:06;2.83;;;2.22;;
57615;SDS011;43816;52.054;-9.494;2022-09-24T00:24:25;2.55;;;2.10;;
57615;SDS011;43816;52.054;-9.494;2022-09-24T00:24:35;2.70;;;2.10;;
57615;SDS011;43816;52.054;-9.494;2022-09-24T00:24:45;2.50;;;2.00;;
57615;SDS011;43816;52.054;-9.494;2022-09-24T00:24:55;2.50;;;2.00;;
57615;SDS011;43816;52.054;-9.494;2022-09-24T00:25:06;2.27;;;2.07;;
57615;SDS011;43816;52.054;-9.494;2022-09-24T00:25:16;2.35;;;2.15;;
57615;SDS011;43816;52.054;-9.494;2022-09-24T00:25:27;2.40;;;2.20;;
57615;SDS011;43816;52.054;-9.494;2022-09-24T00:25:43;2.37;;;2.17;;
57615;SDS011;43816;52.054;-9.494;2022-09-24T00:25:55;2.70;;;2.10;;
57615;SDS011;43816;52.054;-9.494;2022-09-24T00:26:05;2.73;;;2.10;;
57615;SDS011;43816;52.054;-9.494;2022-09-24T00:26:16;2.30;;;2.00;;
57615;SDS011;43816;52.054;-9.494;2022-09-24T00:26:27;2.60;;;2.00;;
57615;SDS011;43816;52.054;-9.494;2022-09-24T00:26:37;2.55;;;1.98;;
57615;SDS011;43816;52.054;-9.494;2022-09-24T00:26:47;2.40;;;1.90;;
57615;SDS011;43816;52.054;-9.494;2022-09-24T00:26:58;2.20;;;2.00;;
57615;SDS011;43816;52.054;-9.494;2022-09-24T00:27:09;2.25;;;2.05;;
57615;SDS011;43816;52.054;-9.494;2022-09-24T00:27:19;2.35;;;2.10;;
57615;SDS011;43816;52.054;-9.494;2022-09-24T00:27:29;2.63;;;2.20;;
57615;SDS011;43816;52.054;-9.494;2022-09-24T00:27:40;2.97;;;2.20;;
57615;SDS011;43816;52.054;-9.494;2022-09-24T00:27:50;2.88;;;2.10;;
57615;SDS011;43816;52.054;-9.494;2022-09-24T00:28:00;2.40;;;1.80;;
57615;SDS011;43816;52.054;-9.494;2022-09-24T00:28:11;2.37;;;1.90;;
57615;SDS011;43816;52.054;-9.494;2022-09-24T00:28:22;2.88;;;2.20;;
57615;SDS011;43816;52.054;-9.494;2022-09-24T00:28:32;3.37;;;2.30;;
57615;SDS011;43816;52.054;-9.494;2022-09-24T00:28:43;3.43;;;2.27;;
57615;SDS011;43816;52.054;-9.494;2022-09-24T00:28:53;2.97;;;2.15;;
57615;SDS011;43816;52.054;-9.494;2022-09-24T00:29:04;2.83;;;2.00;;
57615;SDS011;43816;52.054;-9.494;2022-09-24T00:29:19;2.67;;;1.98;;
57615;SDS011;43816;52.054;-9.494;2022-09-24T00:29:33;3.03;;;2.00;;
57615;SDS011;43816;52.054;-9.494;2022-09-24T00:29:43;3.28;;;2.20;;
57615;SDS011;43816;52.054;-9.494;2022-09-24T00:29:54;3.10;;;2.10;;
57615;SDS011;43816;52.054;-9.494;2022-09-24T00:30:04;3.63;;;2.10;;
57615;SDS011;43816;52.054;-9.494;2022-09-24T00:30:15;3.17;;;2.00;;
57615;SDS011;43816;52.054;-9.494;2022-09-24T00:30:25;2.77;;;1.90;;
57615;SDS011;43816;52.054;-9.494;2022-09-24T00:30:39;2.25;;;1.90;;
57615;SDS011;43816;52.054;-9.494;2022-09-24T00:30:50;2.42;;;2.00;;
57615;SDS011;43816;52.054;-9.494;2022-09-24T00:31:04;2.55;;;2.05;;
57615;SDS011;43816;52.054;-9.494;2022-09-24T00:31:15;2.97;;;2.10;;
57615;SDS011;43816;52.054;-9.494;2022-09-24T00:31:26;2.67;;;2.10;;
57615;SDS011;43816;52.054;-9.494;2022-09-24T00:31:37;2.90;;;2.13;;
57615;SDS011;43816;52.054;-9.494;2022-09-24T00:31:47;2.70;;;2.05;;
57615;SDS011;43816;52.054;-9.494;2022-09-24T00:32:00;2.42;;;2.10;;
57615;SDS011;43816;52.054;-9.494;2022-09-24T00:32:11;2.22;;;2.03;;
57615;SDS011;43816;52.054;-9.494;2022-09-24T00:32:21;2.75;;;2.50;;
57615;SDS011;43816;52.054;-9.494;2022-09-24T00:32:31;2.73;;;2.40;;
57615;SDS011;43816;52.054;-9.494;2022-09-24T00:32:42;2.67;;;2.43;;
57615;SDS011;43816;52.054;-9.494;2022-09-24T00:32:52;2.63;;;2.08;;
57615;SDS011;43816;52.054;-9.494;2022-09-24T00:33:02;2.80;;;2.00;;
57615;SDS011;43816;52.054;-9.494;2022-09-24T00:33:13;2.57;;;1.93;;
57615;SDS011;43816;52.054;-9.494;2022-09-24T00:33:24;2.70;;;1.88;;
57615;SDS011;43816;52.054;-9.494;2022-09-24T00:33:35;2.65;;;1.90;;
57615;SDS011;43816;52.054;-9.494;2022-09-24T00:33:45;2.60;;;1.83;;
57615;SDS011;43816;52.054;-9.494;2022-09-24T00:33:56;2.63;;;1.83;;
57615;SDS011;43816;52.054;-9.494;2022-09-24T00:34:06;2.92;;;1.85;;
57615;SDS011;43816;52.054;-9.494;2022-09-24T00:34:17;3.03;;;2.20;;
57615;SDS011;43816;52.054;-9.494;2022-09-24T00:34:28;2.70;;;2.10;;
57615;SDS011;43816;52.054;-9.494;2022-09-24T00:34:39;2.87;;;2.07;;
57615;SDS011;43816;52.054;-9.494;2022-09-24T00:34:49;3.10;;;2.08;;
57615;SDS011;43816;52.054;-9.494;2022-09-24T00:34:59;3.10;;;1.97;;
57615;SDS011;43816;52.054;-9.494;2022-09-24T00:35:10;2.97;;;2.10;;
57615;SDS011;43816;52.054;-9.494;2022-09-24T00:35:20;3.03;;;2.00;;
57615;SDS011;43816;52.054;-9.494;2022-09-24T00:35:34;2.57;;;2.00;;
57615;SDS011;43816;52.054;-9.494;2022-09-24T00:35:46;2.53;;;1.83;;
57615;SDS011;43816;52.054;-9.494;2022-09-24T00:35:59;2.90;;;1.93;;
57615;SDS011;43816;52.054;-9.494;2022-09-24T00:36:11;3.25;;;2.20;;
57615;SDS011;43816;52.054;-9.494;2022-09-24T00:36:21;2.77;;;2.20;;
57615;SDS011;43816;52.054;-9.494;2022-09-24T00:36:34;2.42;;;2.10;;
57615;SDS011;43816;52.054;-9.494;2022-09-24T00:36:44;2.30;;;2.10;;
57615;SDS011;43816;52.054;-9.494;2022-09-24T00:36:55;2.13;;;1.92;;
57615;SDS011;43816;52.054;-9.494;2022-09-24T00:37:05;2.00;;;1.80;;
57615;SDS011;43816;52.054;-9.494;2022-09-24T00:37:15;1.97;;;1.77;;
57615;SDS011;43816;52.054;-9.494;2022-09-24T00:37:25;2.03;;;1.83;;
57615;SDS011;43816;52.054;-9.494;2022-09-24T00:37:36;2.33;;;1.90;;
57615;SDS011;43816;52.054;-9.494;2022-09-24T00:37:46;2.30;;;1.80;;
57615;SDS011;43816;52.054;-9.494;2022-09-24T00:37:56;2.38;;;1.83;;
57615;SDS011;43816;52.054;-9.494;2022-09-24T00:38:06;1.93;;;1.73;;
57615;SDS011;43816;52.054;-9.494;2022-09-24T00:38:17;1.93;;;1.73;;
57615;SDS011;43816;52.054;-9.494;2022-09-24T00:38:27;2.08;;;1.80;;
57615;SDS011;43816;52.054;-9.494;2022-09-24T00:38:38;2.37;;;1.83;;
57615;SDS011;43816;52.054;-9.494;2022-09-24T00:38:52;2.60;;;1.90;;
57615;SDS011;43816;52.054;-9.494;2022-09-24T00:39:05;2.90;;;2.00;;
57615;SDS011;43816;52.054;-9.494;2022-09-24T00:39:15;2.65;;;1.88;;
57615;SDS011;43816;52.054;-9.494;2022-09-24T00:39:26;2.53;;;1.93;;
57615;SDS011;43816;52.054;-9.494;2022-09-24T00:39:36;2.40;;;1.92;;
57615;SDS011;43816;52.054;-9.494;2022-09-24T00:39:46;2.83;;;2.10;;
57615;SDS011;43816;52.054;-9.494;2022-09-24T00:39:57;2.37;;;1.90;;
57615;SDS011;43816;52.054;-9.494;2022-09-24T00:40:07;2.30;;;1.83;;
57615;SDS011;43816;52.054;-9.494;2022-09-24T00:40:18;2.22;;;1.90;;
57615;SDS011;43816;52.054;-9.494;2022-09-24T00:40:29;2.20;;;1.90;;
57615;SDS011;43816;52.054;-9.494;2022-09-24T00:40:41;2.63;;;2.00;;
57615;SDS011;43816;52.054;-9.494;2022-09-24T00:40:51;2.50;;;1.80;;
57615;SDS011;43816;52.054;-9.494;2022-09-24T00:41:02;2.50;;;1.70;;
57615;SDS011;43816;52.054;-9.494;2022-09-24T00:41:12;2.40;;;1.80;;
57615;SDS011;43816;52.054;-9.494;2022-09-24T00:41:29;2.70;;;1.80;;
57615;SDS011;43816;52.054;-9.494;2022-09-24T00:41:41;2.42;;;1.70;;
57615;SDS011;43816;52.054;-9.494;2022-09-24T00:41:52;2.35;;;1.85;;
57615;SDS011;43816;52.054;-9.494;2022-09-24T00:42:02;2.43;;;1.90;;
57615;SDS011;43816;52.054;-9.494;2022-09-24T00:42:13;2.20;;;1.85;;
57615;SDS011;43816;52.054;-9.494;2022-09-24T00:42:23;2.30;;;1.70;;
57615;SDS011;43816;52.054;-9.494;2022-09-24T00:42:33;2.50;;;1.87;;
57615;SDS011;43816;52.054;-9.494;2022-09-24T00:42:43;2.67;;;2.00;;
57615;SDS011;43816;52.054;-9.494;2022-09-24T00:42:54;2.47;;;2.00;;
57615;SDS011;43816;52.054;-9.494;2022-09-24T00:43:26;2.17;;;1.80;;
57615;SDS011;43816;52.054;-9.494;2022-09-24T00:43:38;2.08;;;1.73;;
57615;SDS011;43816;52.054;-9.494;2022-09-24T00:43:49;2.00;;;1.80;;
57615;SDS011;43816;52.054;-9.494;2022-09-24T00:44:41;1.95;;;1.75;;
57615;SDS011;43816;52.054;-9.494;2022-09-24T00:44:54;2.95;;;1.75;;
57615;SDS011;43816;52.054;-9.494;2022-09-24T00:45:04;2.33;;;1.83;;
57615;SDS011;43816;52.054;-9.494;2022-09-24T00:45:18;2.10;;;1.70;;
57615;SDS011;43816;52.054;-9.494;2022-09-24T00:45:29;2.00;;;1.60;;
57615;SDS011;43816;52.054;-9.494;2022-09-24T00:45:39;1.80;;;1.70;;
57615;SDS011;43816;52.054;-9.494;2022-09-24T00:45:54;1.90;;;1.52;;
57615;SDS011;43816;52.054;-9.494;2022-09-24T00:46:40;2.53;;;1.85;;
57615;SDS011;43816;52.054;-9.494;2022-09-24T00:46:52;2.40;;;1.80;;
57615;SDS011;43816;52.054;-9.494;2022-09-24T00:47:03;2.70;;;1.88;;
57615;SDS011;43816;52.054;-9.494;2022-09-24T00:47:37;2.55;;;1.90;;
57615;SDS011;43816;52.054;-9.494;2022-09-24T00:47:49;2.85;;;2.05;;
57615;SDS011;43816;52.054;-9.494;2022-09-24T00:48:01;2.95;;;1.88;;
57615;SDS011;43816;52.054;-9.494;2022-09-24T00:48:11;2.47;;;1.73;;
57615;SDS011;43816;52.054;-9.494;2022-09-24T00:48:22;2.33;;;1.80;;
57615;SDS011;43816;52.054;-9.494;2022-09-24T00:48:33;1.98;;;1.70;;
57615;SDS011;43816;52.054;-9.494;2022-09-24T00:48:46;2.00;;;1.63;;
57615;SDS011;43816;52.054;-9.494;2022-09-24T00:49:00;1.90;;;1.60;;
57615;SDS011;43816;52.054;-9.494;2022-09-24T00:49:16;2.45;;;1.60;;
57615;SDS011;43816;52.054;-9.494;2022-09-24T00:49:27;2.53;;;1.60;;
57615;SDS011;43816;52.054;-9.494;2022-09-24T00:49:38;2.33;;;1.80;;
57615;SDS011;43816;52.054;-9.494;2022-09-24T00:49:49;2.00;;;1.80;;
57615;SDS011;43816;52.054;-9.494;2022-09-24T00:50:18;2.90;;;2.00;;
57615;SDS011;43816;52.054;-9.494;2022-09-24T00:50:38;2.70;;;1.88;;
57615;SDS011;43816;52.054;-9.494;2022-09-24T00:50:48;2.33;;;1.90;;
57615;SDS011;43816;52.054;-9.494;2022-09-24T00:51:00;2.92;;;1.90;;
57615;SDS011;43816;52.054;-9.494;2022-09-24T00:51:12;2.40;;;1.73;;
57615;SDS011;43816;52.054;-9.494;2022-09-24T00:51:35;1.63;;;1.52;;
57615;SDS011;43816;52.054;-9.494;2022-09-24T00:51:48;2.10;;;1.80;;
57615;SDS011;43816;52.054;-9.494;2022-09-24T00:52:01;2.35;;;1.88;;
57615;SDS011;43816;52.054;-9.494;2022-09-24T00:52:11;2.27;;;1.80;;
57615;SDS011;43816;52.054;-9.494;2022-09-24T00:52:22;2.00;;;1.80;;
57615;SDS011;43816;52.054;-9.494;2022-09-24T00:52:33;2.07;;;1.57;;
57615;SDS011;43816;52.054;-9.494;2022-09-24T00:52:49;2.35;;;1.50;;
57615;SDS011;43816;52.054;-9.494;2022-09-24T00:53:06;2.25;;;1.60;;
57615;SDS011;43816;52.054;-9.494;2022-09-24T00:53:19;1.88;;;1.70;;
57615;SDS011;43816;52.054;-9.494;2022-09-24T00:53:33;2.20;;;1.90;;
57615;SDS011;43816;52.054;-9.494;2022-09-24T00:53:44;2.10;;;1.80;;
57615;SDS011;43816;52.054;-9.494;2022-09-24T00:54:03;2.47;;;1.73;;
57615;SDS011;43816;52.054;-9.494;2022-09-24T00:54:18;2.50;;;1.70;;
57615;SDS011;43816;52.054;-9.494;2022-09-24T00:54:31;1.90;;;1.60;;
57615;SDS011;43816;52.054;-9.494;2022-09-24T00:54:42;1.77;;;1.67;;
57615;SDS011;43816;52.054;-9.494;2022-09-24T00:54:53;2.30;;;1.67;;
57615;SDS011;43816;52.054;-9.494;2022-09-24T00:55:04;2.50;;;1.80;;
57615;SDS011;43816;52.054;-9.494;2022-09-24T00:55:15;2.63;;;1.83;;
57615;SDS011;43816;52.054;-9.494;2022-09-24T00:55:27;2.38;;;1.90;;
57615;SDS011;43816;52.054;-9.494;2022-09-24T00:55:38;2.17;;;1.85;;
57615;SDS011;43816;52.054;-9.494;2022-09-24T00:55:51;1.95;;;1.60;;
57615;SDS011;43816;52.054;-9.494;2022-09-24T00:56:02;2.10;;;1.60;;
57615;SDS011;43816;52.054;-9.494;2022-09-24T00:56:14;2.15;;;1.67;;
57615;SDS011;43816;52.054;-9.494;2022-09-24T00:56:25;2.63;;;1.70;;
57615;SDS011;43816;52.054;-9.494;2022-09-24T00:56:39;2.80;;;1.70;;
57615;SDS011;43816;52.054;-9.494;2022-09-24T00:56:52;2.65;;;1.73;;
57615;SDS011;43816;52.054;-9.494;2022-09-24T00:57:06;2.70;;;1.70;;
57615;SDS011;43816;52.054;-9.494;2022-09-24T00:57:16;2.67;;;1.73;;
57615;SDS011;43816;52.054;-9.494;2022-09-24T00:57:27;2.45;;;1.55;;
57615;SDS011;43816;52.054;-9.494;2022-09-24T00:57:37;2.30;;;1.60;;
57615;SDS011;43816;52.054;-9.494;2022-09-24T00:57:54;2.92;;;1.67;;
57615;SDS011;43816;52.054;-9.494;2022-09-24T00:58:08;2.30;;;1.65;;
57615;SDS011;43816;52.054;-9.494;2022-09-24T00:58:18;1.98;;;1.60;;
57615;SDS011;43816;52.054;-9.494;2022-09-24T00:58:30;2.13;;;1.65;;
57615;SDS011;43816;52.054;-9.494;2022-09-24T00:58:41;2.58;;;1.67;;
57615;SDS011;43816;52.054;-9.494;2022-09-24T00:58:56;3.40;;;1.60;;
57615;SDS011;43816;52.054;-9.494;2022-09-24T00:59:10;3.40;;;1.60;;
57615;SDS011;43816;52.054;-9.494;2022-09-24T00:59:22;2.17;;;1.60;;
57615;SDS011;43816;52.054;-9.494;2022-09-24T00:59:34;2.10;;;1.60;;
57615;SDS011;43816;52.054;-9.494;2022-09-24T00:59:45;2.90;;;1.77;;
57615;SDS011;43816;52.054;-9.494;2022-09-24T00:59:55;3.67;;;1.75;;
57615;SDS011;43816;52.054;-9.494;2022-09-24T01:00:06;3.97;;;1.90;;
57615;SDS011;43816;52.054;-9.494;2022-09-24T01:00:17;2.20;;;1.65;;
57615;SDS011;43816;52.054;-9.494;2022-09-24T01:00:27;2.28;;;1.90;;
57615;SDS011;43816;52.054;-9.494;2022-09-24T01:00:39;2.00;;;1.75;;
57615;SDS011;43816;52.054;-9.494;2022-09-24T01:00:53;2.03;;;1.70;;
57615;SDS011;43816;52.054;-9.494;2022-09-24T01:01:07;2.10;;;1.60;;
57615;SDS011;43816;52.054;-9.494;2022-09-24T01:01:18;2.27;;;1.70;;
57615;SDS011;43816;52.054;-9.494;2022-09-24T01:01:31;2.28;;;1.70;;
57615;SDS011;43816;52.054;-9.494;2022-09-24T01:01:42;2.20;;;1.60;;
57615;SDS011;43816;52.054;-9.494;2022-09-24T01:01:54;2.85;;;1.55;;
57615;SDS011;43816;52.054;-9.494;2022-09-24T01:02:04;2.97;;;1.60;;
57615;SDS011;43816;52.054;-9.494;2022-09-24T01:02:15;2.27;;;1.70;;
57615;SDS011;43816;52.054;-9.494;2022-09-24T01:02:25;1.98;;;1.70;;
57615;SDS011;43816;52.054;-9.494;2022-09-24T01:02:35;2.10;;;1.80;;
57615;SDS011;43816;52.054;-9.494;2022-09-24T01:02:53;2.10;;;1.80;;
57615;SDS011;43816;52.054;-9.494;2022-09-24T01:03:08;2.63;;;1.83;;
57615;SDS011;43816;52.054;-9.494;2022-09-24T01:03:23;2.97;;;1.70;;
57615;SDS011;43816;52.054;-9.494;2022-09-24T01:03:36;2.95;;;1.60;;
57615;SDS011;43816;52.054;-9.494;2022-09-24T01:03:48;2.92;;;1.60;;
57615;SDS011;43816;52.054;-9.494;2022-09-24T01:04:01;2.40;;;1.70;;
57615;SDS011;43816;52.054;-9.494;2022-09-24T01:04:14;2.24;;;1.70;;
57615;SDS011;43816;52.054;-9.494;2022-09-24T01:04:27;2.35;;;1.75;;
57615;SDS011;43816;52.054;-9.494;2022-09-24T01:04:37;2.13;;;1.80;;
57615;SDS011;43816;52.054;-9.494;2022-09-24T01:04:47;2.50;;;1.88;;
57615;SDS011;43816;52.054;-9.494;2022-09-24T01:04:58;2.47;;;1.83;;
57615;SDS011;43816;52.054;-9.494;2022-09-24T01:05:08;2.20;;;1.60;;
57615;SDS011;43816;52.054;-9.494;2022-09-24T01:05:19;1.73;;;1.50;;
57615;SDS011;43816;52.054;-9.494;2022-09-24T01:05:29;1.70;;;1.50;;
57615;SDS011;43816;52.054;-9.494;2022-09-24T01:05:40;2.00;;;1.52;;
57615;SDS011;43816;52.054;-9.494;2022-09-24T01:05:50;2.27;;;1.50;;
57615;SDS011;43816;52.054;-9.494;2022-09-24T01:06:00;2.60;;;1.50;;
57615;SDS011;43816;52.054;-9.494;2022-09-24T01:06:11;2.40;;;1.50;;
57615;SDS011;43816;52.054;-9.494;2022-09-24T01:06:22;2.10;;;1.60;;
57615;SDS011;43816;52.054;-9.494;2022-09-24T01:06:34;2.55;;;1.80;;
57615;SDS011;43816;52.054;-9.494;2022-09-24T01:06:44;2.60;;;1.73;;
57615;SDS011;43816;52.054;-9.494;2022-09-24T01:06:55;2.77;;;1.77;;
57615;SDS011;43816;52.054;-9.494;2022-09-24T01:07:06;2.22;;;1.67;;
57615;SDS011;43816;52.054;-9.494;2022-09-24T01:07:16;2.10;;;1.73;;
57615;SDS011;43816;52.054;-9.494;2022-09-24T01:07:26;1.88;;;1.70;;
57615;SDS011;43816;52.054;-9.494;2022-09-24T01:07:36;1.93;;;1.70;;
57615;SDS011;43816;52.054;-9.494;2022-09-24T01:07:47;2.00;;;1.63;;
57615;SDS011;43816;52.054;-9.494;2022-09-24T01:07:57;2.13;;;1.60;;
57615;SDS011;43816;52.054;-9.494;2022-09-24T01:08:14;2.10;;;1.60;;
57615;SDS011;43816;52.054;-9.494;2022-09-24T01:08:26;2.33;;;1.60;;
57615;SDS011;43816;52.054;-9.494;2022-09-24T01:08:36;2.22;;;1.60;;
57615;SDS011;43816;52.054;-9.494;2022-09-24T01:08:48;2.00;;;1.60;;
57615;SDS011;43816;52.054;-9.494;2022-09-24T01:08:59;2.05;;;1.60;;
57615;SDS011;43816;52.054;-9.494;2022-09-24T01:09:10;2.15;;;1.70;;
57615;SDS011;43816;52.054;-9.494;2022-09-24T01:09:21;2.43;;;1.67;;
57615;SDS011;43816;52.054;-9.494;2022-09-24T01:09:35;2.10;;;1.40;;
57615;SDS011;43816;52.054;-9.494;2022-09-24T01:09:45;2.08;;;1.50;;
57615;SDS011;43816;52.054;-9.494;2022-09-24T01:09:55;1.77;;;1.50;;
57615;SDS011;43816;52.054;-9.494;2022-09-24T01:10:06;1.77;;;1.53;;
57615;SDS011;43816;52.054;-9.494;2022-09-24T01:10:16;1.65;;;1.40;;
57615;SDS011;43816;52.054;-9.494;2022-09-24T01:10:56;1.70;;;1.50;;